createdAt,value
2022-10-11T00:02:20.974Z,92.36
2022-10-11T00:04:50.578Z,92.42
2022-10-11T00:07:25.195Z,92.30
2022-10-11T00:09:54.379Z,92.80
2022-10-11T00:12:23.905Z,92.56
2022-10-11T00:14:55.044Z,92.04
2022-10-11T00:17:24.278Z,91.92
2022-10-11T00:19:53.374Z,92.68
2022-10-11T00:22:27.539Z,92.75
2022-10-11T00:24:58.298Z,92.58
2022-10-11T00:27:27.634Z,92.87
2022-10-11T00:29:58.879Z,92.69
2022-10-11T00:32:33.147Z,93.43
2022-10-11T00:35:05.881Z,93.34
2022-10-11T00:37:36.270Z,93.57
2022-10-11T00:40:08.497Z,93.21
2022-10-11T00:42:37.916Z,93.62
2022-10-11T00:45:36.761Z,93.97
2022-10-11T00:51:04.174Z,93.96
2022-10-11T00:53:34.869Z,93.58
2022-10-11T00:56:09.080Z,93.96
2022-10-11T00:58:45.761Z,93.81
2022-10-11T01:01:14.902Z,93.41
2022-10-11T01:03:52.147Z,93.68
2022-10-11T01:06:26.823Z,94.07
2022-10-11T01:09:01.340Z,94.10
2022-10-11T01:11:32.954Z,93.85
2022-10-11T01:14:28.937Z,93.94
2022-10-11T01:17:05.586Z,94.08
2022-10-11T01:20:02.727Z,94.15
2022-10-11T01:22:55.094Z,94.29
2022-10-11T01:25:48.521Z,94.38
2022-10-11T01:28:28.328Z,94.39
2022-10-11T01:31:06.506Z,94.37
2022-10-11T01:33:43.247Z,94.24
2022-10-11T01:36:27.203Z,94.28
2022-10-11T01:39:01.411Z,94.46
2022-10-11T01:41:36.703Z,94.87
2022-10-11T01:44:14.898Z,94.44
2022-10-11T01:46:45.775Z,94.40
2022-10-11T01:49:16.034Z,93.92
2022-10-11T01:51:48.004Z,94.43
2022-10-11T01:54:56.964Z,94.75
2022-10-11T01:58:01.074Z,94.85
2022-10-11T02:00:39.450Z,94.84
2022-10-11T02:03:22.317Z,94.43
2022-10-11T02:05:59.557Z,95.16
2022-10-11T02:08:39.336Z,94.86
2022-10-11T02:11:14.929Z,95.41
2022-10-11T02:13:49.376Z,95.26
2022-10-11T02:16:25.941Z,95.59
2022-10-11T02:19:06.881Z,95.26
2022-10-11T02:21:39.520Z,95.43
2022-10-11T02:24:20.373Z,95.18
2022-10-11T02:26:53.767Z,95.38
2022-10-11T02:32:01.783Z,95.34
2022-10-11T02:34:47.246Z,95.27
2022-10-11T02:37:24.540Z,95.38
2022-10-11T02:39:57.835Z,95.18
2022-10-11T02:42:30.535Z,95.20
2022-10-11T02:45:10.122Z,95.38
2022-10-11T02:47:41.377Z,95.63
2022-10-11T02:50:13.116Z,95.50
2022-10-11T02:52:48.146Z,95.73
2022-10-11T02:55:17.580Z,95.54
2022-10-11T02:57:47.260Z,95.66
2022-10-11T03:00:17.328Z,96.27
2022-10-11T03:02:46.298Z,96.23
2022-10-11T03:05:17.616Z,96.16
2022-10-11T03:07:51.781Z,96.14
2022-10-11T03:10:21.107Z,96.32
2022-10-11T03:12:50.310Z,96.27
2022-10-11T03:15:24.480Z,96.46
2022-10-11T03:17:53.575Z,96.70
2022-10-11T03:20:25.013Z,96.34
2022-10-11T03:22:54.092Z,96.33
2022-10-11T03:25:25.026Z,96.26
2022-10-11T03:27:54.216Z,96.20
2022-10-11T03:30:23.353Z,95.88
2022-10-11T03:32:52.761Z,96.44
2022-10-11T03:35:29.074Z,96.14
2022-10-11T03:40:38.388Z,96.18
2022-10-11T03:43:07.446Z,96.04
2022-10-11T03:45:41.852Z,95.74
2022-10-11T03:48:11.679Z,95.44
2022-10-11T03:50:42.880Z,95.77
2022-10-11T03:53:12.137Z,95.83
2022-10-11T03:55:41.799Z,95.80
2022-10-11T03:58:16.034Z,96.04
2022-10-11T04:00:45.102Z,95.48
2022-10-11T04:03:19.324Z,95.66
2022-10-11T04:05:51.148Z,95.82
2022-10-11T04:08:32.321Z,95.83
2022-10-11T04:11:01.475Z,95.61
2022-10-11T04:13:31.032Z,95.85
2022-10-11T04:16:00.134Z,95.84
2022-10-11T04:18:32.989Z,95.34
2022-10-11T04:21:04.233Z,95.14
2022-10-11T04:23:38.474Z,95.51
2022-10-11T04:26:14.078Z,95.33
2022-10-11T04:28:43.266Z,95.59
2022-10-11T04:31:12.534Z,95.06
2022-10-11T04:33:41.739Z,95.02
2022-10-11T04:36:12.710Z,94.42
2022-10-11T04:38:41.978Z,94.62
2022-10-11T04:41:12.655Z,93.98
2022-10-11T04:43:42.105Z,94.01
2022-10-11T04:46:11.847Z,94.07
2022-10-11T04:48:41.043Z,93.72
2022-10-11T04:51:10.070Z,93.40
2022-10-11T04:53:46.228Z,93.01
2022-10-11T04:56:17.310Z,92.21
2022-10-11T04:58:47.694Z,92.07
2022-10-11T05:01:17.520Z,92.12
2022-10-11T05:03:46.822Z,92.23
2022-10-11T05:06:15.910Z,92.25
2022-10-11T05:08:46.878Z,92.23
2022-10-11T05:11:18.391Z,91.79
2022-10-11T05:13:48.234Z,91.79
2022-10-11T05:16:18.219Z,91.42
2022-10-11T05:18:47.372Z,91.59
2022-10-11T05:21:19.620Z,91.69
2022-10-11T05:24:00.922Z,91.27
2022-10-11T05:26:30.424Z,90.53
2022-10-11T05:29:04.737Z,90.69
2022-10-11T05:31:34.272Z,90.81
2022-10-11T05:34:08.442Z,90.58
2022-10-11T05:36:37.643Z,90.63
2022-10-11T05:39:08.711Z,90.46
2022-10-11T05:41:37.839Z,90.51
2022-10-11T05:44:09.112Z,90.09
2022-10-11T05:46:43.220Z,89.78
2022-10-11T05:49:17.300Z,89.40
2022-10-11T05:51:46.676Z,88.88
2022-10-11T05:54:25.319Z,88.33
2022-10-11T05:56:56.391Z,88.12
2022-10-11T05:59:25.535Z,87.25
2022-10-11T06:01:54.685Z,87.16
2022-10-11T06:04:23.863Z,86.81
2022-10-11T06:06:52.853Z,87.03
2022-10-11T06:09:23.941Z,86.75
2022-10-11T06:11:53.322Z,86.04
2022-10-11T06:14:27.711Z,84.66
2022-10-11T06:16:56.956Z,84.66
2022-10-11T06:19:26.194Z,84.79
2022-10-11T06:21:55.242Z,83.41
2022-10-11T06:24:31.457Z,83.06
2022-10-11T06:27:00.665Z,82.79
2022-10-11T06:29:29.698Z,82.44
2022-10-11T06:32:05.211Z,81.50
2022-10-11T06:34:34.314Z,81.55
2022-10-11T06:37:03.273Z,81.84
2022-10-11T06:39:39.295Z,81.25
2022-10-11T06:42:08.746Z,81.68
2022-10-11T06:44:37.756Z,80.97
2022-10-11T06:47:13.424Z,80.95
2022-10-11T06:49:42.899Z,80.96
2022-10-11T06:52:12.048Z,80.62
2022-10-11T06:54:45.097Z,80.36
2022-10-11T06:57:14.806Z,80.47
2022-10-11T06:59:49.803Z,80.27
2022-10-11T07:02:19.115Z,79.96
2022-10-11T07:04:48.233Z,80.03
2022-10-11T07:07:17.481Z,79.53
2022-10-11T07:09:53.830Z,79.11
2022-10-11T07:15:03.364Z,78.15
2022-10-11T07:17:32.357Z,77.89
2022-10-11T07:20:04.283Z,78.28
2022-10-11T07:22:33.166Z,77.44
2022-10-11T07:25:04.304Z,77.26
2022-10-11T07:27:38.565Z,76.71
2022-10-11T07:30:09.289Z,76.27
2022-10-11T07:32:38.516Z,75.72
2022-10-11T07:35:08.604Z,75.44
2022-10-11T07:37:37.769Z,74.73
2022-10-11T07:40:11.162Z,73.77
2022-10-11T07:42:40.331Z,73.49
2022-10-11T07:45:10.110Z,73.58
2022-10-11T07:47:39.295Z,73.40
2022-10-11T07:50:09.914Z,72.91
2022-10-11T07:52:45.214Z,72.98
2022-10-11T07:55:16.377Z,72.71
2022-10-11T07:57:50.399Z,72.29
2022-10-11T08:00:20.222Z,71.79
2022-10-11T08:02:49.339Z,71.64
2022-10-11T08:05:18.936Z,70.86
2022-10-11T08:07:48.346Z,70.47
2022-10-11T08:10:19.962Z,70.58
2022-10-11T08:12:49.314Z,70.43
2022-10-11T08:15:25.142Z,69.76
2022-10-11T08:17:54.331Z,68.88
2022-10-11T08:20:23.683Z,67.82
2022-10-11T08:22:52.759Z,67.11
2022-10-11T08:25:24.368Z,65.97
2022-10-11T08:27:53.576Z,66.19
2022-10-11T08:30:22.772Z,65.79
2022-10-11T08:32:52.011Z,65.60
2022-10-11T08:35:21.111Z,66.34
2022-10-11T08:37:50.254Z,65.82
2022-10-11T08:40:23.988Z,65.47
2022-10-11T08:43:01.112Z,64.17
2022-10-11T08:45:34.710Z,63.95
2022-10-11T08:48:15.147Z,63.62
2022-10-11T08:51:01.741Z,63.47
2022-10-11T08:53:45.563Z,63.61
2022-10-11T08:56:16.993Z,61.56
2022-10-11T08:58:56.158Z,60.88
2022-10-11T09:01:28.029Z,59.78
2022-10-11T09:04:02.258Z,58.32
2022-10-11T09:06:49.114Z,57.91
2022-10-11T09:09:42.740Z,57.72
2022-10-11T09:12:28.246Z,55.70
2022-10-11T09:15:17.778Z,56.20
2022-10-11T09:18:09.228Z,55.89
2022-10-11T09:20:54.589Z,55.81
2022-10-11T09:23:41.300Z,55.96
2022-10-11T09:26:16.676Z,55.58
2022-10-11T09:29:03.648Z,56.16
2022-10-11T09:31:35.825Z,56.52
2022-10-11T09:34:11.280Z,56.95
2022-10-11T09:36:46.283Z,56.48
2022-10-11T09:39:37.283Z,56.65
2022-10-11T09:42:08.754Z,56.35
2022-10-11T09:44:49.805Z,56.17
2022-10-11T09:47:23.709Z,55.91
2022-10-11T09:49:56.184Z,54.08
2022-10-11T09:52:27.340Z,53.35
2022-10-11T09:54:58.749Z,52.53
2022-10-11T09:57:29.935Z,52.27
2022-10-11T10:00:07.522Z,51.95
2022-10-11T10:02:53.941Z,51.65
2022-10-11T10:05:25.300Z,51.29
2022-10-11T10:08:05.372Z,51.76
2022-10-11T10:10:41.121Z,51.89
2022-10-11T10:13:22.509Z,51.28
2022-10-11T10:15:53.738Z,51.87
2022-10-11T10:18:35.102Z,52.21
2022-10-11T10:21:05.603Z,51.72
2022-10-11T10:23:37.214Z,51.56
2022-10-11T10:26:17.737Z,51.75
2022-10-11T10:28:59.020Z,51.88
2022-10-11T10:32:01.918Z,50.72
2022-10-11T10:34:40.891Z,49.50
2022-10-11T10:37:21.962Z,49.39
2022-10-11T10:39:56.917Z,49.81
2022-10-11T10:42:26.357Z,49.50
2022-10-11T10:44:59.092Z,49.53
2022-10-11T10:48:07.084Z,50.43
2022-10-11T10:50:49.645Z,49.59
2022-10-11T10:53:30.707Z,49.23
2022-10-11T10:56:06.231Z,47.87
2022-10-11T10:58:48.107Z,48.25
2022-10-11T11:01:22.929Z,48.64
2022-10-11T11:04:03.795Z,48.87
2022-10-11T11:06:41.595Z,47.54
2022-10-11T11:09:21.878Z,47.24
2022-10-11T11:12:02.654Z,46.70
2022-10-11T11:14:46.378Z,46.96
2022-10-11T11:17:27.620Z,47.60
2022-10-11T11:20:11.051Z,46.84
2022-10-11T11:22:52.047Z,47.27
2022-10-11T11:25:33.006Z,46.58
2022-10-11T11:28:16.484Z,45.14
2022-10-11T11:30:54.322Z,45.16
2022-10-11T11:33:40.109Z,45.35
2022-10-11T11:36:15.513Z,44.54
2022-10-11T11:38:50.258Z,43.81
2022-10-11T11:41:24.802Z,43.92
2022-10-11T11:44:00.799Z,43.92
2022-10-11T11:46:33.676Z,41.90
2022-10-11T11:49:12.759Z,42.13
2022-10-11T11:54:43.158Z,42.70
2022-10-11T11:57:31.604Z,42.38
2022-10-11T12:00:07.535Z,42.05
2022-10-11T12:02:48.328Z,42.59
2022-10-11T12:05:20.373Z,42.24
2022-10-11T12:07:57.710Z,42.22
2022-10-11T12:10:41.397Z,42.89
2022-10-11T12:13:27.250Z,43.56
2022-10-11T12:16:09.866Z,43.67
2022-10-11T12:18:51.703Z,43.65
2022-10-11T12:21:31.549Z,42.27
2022-10-11T12:24:18.927Z,41.51
2022-10-11T12:26:57.579Z,41.48
2022-10-11T12:29:50.057Z,41.07
2022-10-11T12:32:49.632Z,40.20
2022-10-11T12:35:57.301Z,40.10
2022-10-11T12:38:28.923Z,38.64
2022-10-11T12:41:00.215Z,39.18
2022-10-11T12:43:35.742Z,39.91
2022-10-11T12:46:35.411Z,40.06
2022-10-11T12:56:28.539Z,40.59
2022-10-11T12:59:05.794Z,40.12
2022-10-11T13:01:38.391Z,40.09
2022-10-11T13:04:11.657Z,40.57
2022-10-11T13:06:50.564Z,40.99
2022-10-11T13:09:30.459Z,40.32
2022-10-11T13:12:06.834Z,39.23
2022-10-11T13:14:39.997Z,38.93
2022-10-11T13:17:17.881Z,39.23
2022-10-11T13:19:47.178Z,39.29
2022-10-11T13:22:20.465Z,38.46
2022-10-11T13:24:49.641Z,38.03
2022-10-11T13:27:23.294Z,38.38
2022-10-11T13:30:01.771Z,38.14
2022-10-11T13:32:35.777Z,37.68
2022-10-11T13:35:09.584Z,37.56
2022-10-11T13:37:45.974Z,38.13
2022-10-11T13:40:16.948Z,38.59
2022-10-11T13:42:49.853Z,38.21
2022-10-11T13:45:24.905Z,38.69
2022-10-11T13:47:56.033Z,38.76
2022-10-11T13:50:33.958Z,38.51
2022-10-11T13:53:04.944Z,38.46
2022-10-11T13:55:45.967Z,38.90
2022-10-11T13:58:22.130Z,38.90
2022-10-11T14:00:58.093Z,39.17
2022-10-11T14:03:39.321Z,39.09
2022-10-11T14:06:09.245Z,39.74
2022-10-11T14:08:41.293Z,39.57
2022-10-11T14:11:10.723Z,40.45
2022-10-11T14:13:43.343Z,40.20
2022-10-11T14:16:14.762Z,40.70
2022-10-11T14:18:47.910Z,41.02
2022-10-11T14:21:28.133Z,40.52
2022-10-11T14:23:58.613Z,40.42
2022-10-11T14:26:28.907Z,40.66
2022-10-11T14:29:09.969Z,40.36
2022-10-11T14:31:41.934Z,40.50
2022-10-11T14:34:20.635Z,40.86
2022-10-11T14:36:51.012Z,41.04
2022-10-11T14:39:28.151Z,41.24
2022-10-11T14:41:57.387Z,41.65
2022-10-11T14:44:35.256Z,41.43
2022-10-11T14:47:06.216Z,41.75
2022-10-11T14:49:40.831Z,42.05
2022-10-11T14:52:13.112Z,42.66
2022-10-11T14:54:42.733Z,42.35
2022-10-11T14:57:14.086Z,43.09
2022-10-11T14:59:47.501Z,43.05
2022-10-11T15:02:16.633Z,43.37
2022-10-11T15:04:47.282Z,43.79
2022-10-11T15:07:23.345Z,43.60
2022-10-11T15:09:52.500Z,43.97
2022-10-11T15:12:21.520Z,43.92
2022-10-11T15:14:52.509Z,43.93
2022-10-11T15:17:21.638Z,44.37
2022-10-11T15:19:50.689Z,44.92
2022-10-11T15:22:19.829Z,44.95
2022-10-11T15:24:55.379Z,45.58
2022-10-11T15:27:28.175Z,45.80
2022-10-11T15:30:00.949Z,46.00
2022-10-11T15:32:31.543Z,46.49
2022-10-11T15:35:09.508Z,46.57
2022-10-11T15:37:39.133Z,46.22
2022-10-11T15:40:18.225Z,46.66
2022-10-11T15:42:47.802Z,46.41
2022-10-11T15:45:31.701Z,46.74
2022-10-11T15:48:01.546Z,46.64
2022-10-11T15:50:36.926Z,46.98
2022-10-11T15:53:07.896Z,47.29
2022-10-11T15:55:39.706Z,47.48
2022-10-11T15:58:08.850Z,47.24
2022-10-11T16:00:40.055Z,47.27
2022-10-11T16:03:09.796Z,47.68
2022-10-11T16:05:43.407Z,47.86
2022-10-11T16:08:17.717Z,48.44
2022-10-11T16:10:47.059Z,48.13
2022-10-11T16:13:16.423Z,48.01
2022-10-11T16:15:52.662Z,48.84
2022-10-11T16:18:22.896Z,48.48
2022-10-11T16:21:00.344Z,49.64
2022-10-11T16:23:34.513Z,49.70
2022-10-11T16:26:06.391Z,50.61
2022-10-11T16:28:35.991Z,50.87
2022-10-11T16:31:12.004Z,52.12
2022-10-11T16:33:44.978Z,52.98
2022-10-11T16:36:40.853Z,54.19
2022-10-11T16:39:13.702Z,54.55
2022-10-11T16:41:48.391Z,55.11
2022-10-11T16:44:24.739Z,56.30
2022-10-11T16:46:56.875Z,58.49
2022-10-11T16:49:32.472Z,58.86
2022-10-11T16:52:03.390Z,60.10
2022-10-11T16:54:32.612Z,61.31
2022-10-11T16:57:02.000Z,62.26
2022-10-11T17:02:09.413Z,65.10
2022-10-11T17:04:38.861Z,65.38
2022-10-11T17:07:14.036Z,66.05
2022-10-11T17:09:46.119Z,67.06
2022-10-11T17:12:17.292Z,67.93
2022-10-11T17:14:46.929Z,68.18
2022-10-11T17:17:18.478Z,70.43
2022-10-11T17:19:48.933Z,70.13
2022-10-11T17:22:20.490Z,71.06
2022-10-11T17:24:52.395Z,70.55
2022-10-11T17:27:26.811Z,70.52
2022-10-11T17:29:56.103Z,70.98
2022-10-11T17:32:32.838Z,72.13
2022-10-11T17:35:06.281Z,72.39
2022-10-11T17:37:36.397Z,72.59
2022-10-11T17:40:06.146Z,72.89
2022-10-11T17:42:35.281Z,73.47
2022-10-11T17:45:04.442Z,73.53
2022-10-11T17:47:36.178Z,74.30
2022-10-11T17:50:05.239Z,73.64
2022-10-11T17:52:34.389Z,73.91
2022-10-11T17:55:06.510Z,75.70
2022-10-11T17:57:35.967Z,75.18
2022-10-11T18:00:05.990Z,75.61
2022-10-11T18:02:42.761Z,75.32
2022-10-11T18:05:14.364Z,74.89
2022-10-11T18:07:45.731Z,73.41
2022-10-11T18:10:20.420Z,71.95
2022-10-11T18:12:49.796Z,72.11
2022-10-11T18:15:19.258Z,71.76
2022-10-11T18:17:50.568Z,72.43
2022-10-11T18:20:20.279Z,72.28
2022-10-11T18:22:49.346Z,72.45
2022-10-11T18:25:18.770Z,72.51
2022-10-11T18:27:48.338Z,72.38
2022-10-11T18:30:17.999Z,72.64
2022-10-11T18:32:47.148Z,72.58
2022-10-11T18:35:19.821Z,72.97
2022-10-11T18:38:00.045Z,72.96
2022-10-11T18:40:30.113Z,73.04
2022-10-11T18:42:59.458Z,72.98
2022-10-11T18:45:28.786Z,72.77
2022-10-11T18:47:59.276Z,73.47
2022-10-11T18:50:35.307Z,74.33
2022-10-11T18:56:00.329Z,74.43
2022-10-11T18:58:36.924Z,74.52
2022-10-11T19:01:07.423Z,74.49
2022-10-11T19:03:37.239Z,74.77
2022-10-11T19:06:18.974Z,74.95
2022-10-11T19:08:49.746Z,74.83
2022-10-11T19:11:21.762Z,74.72
2022-10-11T19:13:56.515Z,74.92
2022-10-11T19:16:29.161Z,74.64
2022-10-11T19:18:58.695Z,74.89
2022-10-11T19:21:30.132Z,75.40
2022-10-11T19:24:05.058Z,74.98
2022-10-11T19:26:36.720Z,75.51
2022-10-11T19:29:08.261Z,75.39
2022-10-11T19:31:42.149Z,75.85
2022-10-11T19:34:12.073Z,75.76
2022-10-11T19:36:44.038Z,75.73
2022-10-11T19:39:18.366Z,76.11
2022-10-11T19:41:48.489Z,76.37
2022-10-11T19:44:18.421Z,75.93
2022-10-11T19:46:52.319Z,75.91
2022-10-11T19:49:29.490Z,76.00
2022-10-11T19:52:00.879Z,76.65
2022-10-11T19:54:37.018Z,77.12
2022-10-11T19:57:08.278Z,77.43
2022-10-11T19:59:37.690Z,77.31
2022-10-11T20:02:06.866Z,77.64
2022-10-11T20:04:51.931Z,78.60
2022-10-11T20:07:24.225Z,79.73
2022-10-11T20:09:53.809Z,80.09
2022-10-11T20:12:22.766Z,80.48
2022-10-11T20:14:52.027Z,81.54
2022-10-11T20:19:56.331Z,82.44
2022-10-11T20:22:27.528Z,83.45
2022-10-11T20:24:56.870Z,83.54
2022-10-11T20:27:26.203Z,84.01
2022-10-11T20:30:00.481Z,84.30
2022-10-11T20:32:30.628Z,84.64
2022-10-11T20:34:59.794Z,84.99
2022-10-11T20:37:37.229Z,86.37
2022-10-11T20:40:08.033Z,85.53
2022-10-11T20:42:42.306Z,85.38
2022-10-11T20:45:12.506Z,85.85
2022-10-11T20:47:41.571Z,85.38
2022-10-11T20:50:11.363Z,85.55
2022-10-11T20:52:42.417Z,85.17
2022-10-11T20:55:18.454Z,85.08
2022-10-11T20:57:52.668Z,85.02
2022-10-11T21:00:22.701Z,85.79
2022-10-11T21:02:52.207Z,86.21
2022-10-11T21:05:21.304Z,86.49
2022-10-11T21:07:52.999Z,87.43
2022-10-11T21:10:22.360Z,87.15
2022-10-11T21:12:51.423Z,87.25
2022-10-11T21:15:21.009Z,87.86
2022-10-11T21:17:50.152Z,88.31
2022-10-11T21:20:19.551Z,88.63
2022-10-11T21:22:56.154Z,89.70
2022-10-11T21:25:29.168Z,89.06
2022-10-11T21:27:58.945Z,89.29
2022-10-11T21:30:29.221Z,89.33
2022-10-11T21:32:58.518Z,89.37
2022-10-11T21:35:28.793Z,89.52
2022-10-11T21:38:05.048Z,90.13
2022-10-11T21:40:34.871Z,90.02
2022-10-11T21:43:04.230Z,90.33
2022-10-11T21:45:33.525Z,90.35
2022-10-11T21:50:42.446Z,90.89
2022-10-11T21:53:13.438Z,91.37
2022-10-11T21:55:42.649Z,91.12
2022-10-11T21:58:11.692Z,90.90
2022-10-11T22:00:41.414Z,91.63
2022-10-11T22:03:10.926Z,92.02
2022-10-11T22:05:46.461Z,92.44
2022-10-11T22:08:18.113Z,92.16
2022-10-11T22:10:54.300Z,92.27
2022-10-11T22:13:23.621Z,92.71
2022-10-11T22:15:53.156Z,92.85
2022-10-11T22:18:24.040Z,91.70
2022-10-11T22:20:53.551Z,90.24
2022-10-11T22:23:24.639Z,88.75
2022-10-11T22:25:53.760Z,87.98
2022-10-11T22:28:22.880Z,87.61
2022-10-11T22:30:53.192Z,88.05
2022-10-11T22:33:22.275Z,88.38
2022-10-11T22:36:01.555Z,89.06
2022-10-11T22:38:32.807Z,89.00
2022-10-11T22:41:02.114Z,88.72
2022-10-11T22:43:33.195Z,89.36
2022-10-11T22:46:02.775Z,89.66
2022-10-11T22:48:32.075Z,89.33
2022-10-11T22:51:02.039Z,89.68
2022-10-11T22:53:33.391Z,89.25
2022-10-11T22:56:02.532Z,90.08
2022-10-11T22:58:31.712Z,90.55
2022-10-11T23:01:08.500Z,90.98
2022-10-11T23:03:39.321Z,90.45
2022-10-11T23:06:08.883Z,90.41
2022-10-11T23:08:39.918Z,90.44
2022-10-11T23:11:09.521Z,90.34
2022-10-11T23:13:38.746Z,90.49
2022-10-11T23:16:09.270Z,90.45
2022-10-11T23:18:40.788Z,90.30
2022-10-11T23:21:15.713Z,90.49
2022-10-11T23:23:46.919Z,89.98
2022-10-11T23:26:21.185Z,90.19
2022-10-11T23:28:50.329Z,90.96
2022-10-11T23:31:20.115Z,91.49
2022-10-11T23:33:55.723Z,91.17
2022-10-11T23:36:26.780Z,90.89
2022-10-11T23:38:59.713Z,90.38
2022-10-11T23:41:30.894Z,90.16
2022-10-11T23:44:07.419Z,90.32
2022-10-11T23:46:37.047Z,90.39
2022-10-11T23:49:06.567Z,90.36
2022-10-11T23:51:35.868Z,91.03
2022-10-11T23:54:11.988Z,91.93
2022-10-11T23:56:41.532Z,91.84
2022-10-11T23:59:11.783Z,91.92
